Strona główna
METAR-TAF:

METAR-TAF

Lotnisko :

Port lotniczy Londyn-Southend

Londyn-Southend, Anglia

Szerokość geograficzna: 51-34N, Długość geograficzna: 000-42E, wysokość: 15 m

Aktualna obserwacja pogody

Raport powstał 37 minut temu, godzina 20:20 UTC
Wiatr 5 kt od wschód
Temperatura 6°C
Wilgotność 87%
Ciśnienie 1020 hPa
Widzialność 10 km lub więcej
Brak chmur poniżej 1500 m i brak chmur cumulonimbus

METAR: EGMC 042020Z 10005KT CAVOK 06/04 Q1020

czas: 21:57 (20:57 UTC)

Prognoza

Raport powstał 58 minut temu, godzina 19:59 UTC
Prognoza ważna od 04 godzina 21 UTC do 05 godzina 06 UTC
Wiatr 9 kt od wschodnio-południowy wschód
Widzialność 10 km lub więcej
Brak chmur poniżej 1500 m i brak chmur cumulonimbus

TAF: EGMC 041959Z 0421/0506 11009KT CAVOK

Obserwacja i prognoza pogody dla ponad 4000 lotnisk (raport METAR i TAF).

Dostępne stacje oznaczono żółtymi i czerwonymi punktami na mapie.

Najedź kursorem aby zobaczyć nazwę stacji.

Kliknij aby zobaczyć obserwacje i prognozy pogody.

Aby zmienić mapę: kliknij na zielony przycisk z czarnym krzyżykiem, aby powiększyć; na zielony przycisk z myślnikiem, aby pomniejszyć; na zielone strzałki, aby przejść do map sąsiednich.


METAR-TAF: